• Join FlightAware (Why Join?)
  • Login
  • US Flag 
09:50AM EDT


 

Airport Tracker/Info


-or-


 

Live Flight TrackerFlight Track Log ✈ UAL5829 ✈ 27-Apr-2013 ✈ KBDL - KORD

Flight Track Log - Related Links

Times and Time Zones

All times are in EDT time to prevent confusion due to time zone crossing. See the UAL5829 flight status page for this flight to view local times or setup timezone preferences in your user account.

Time Position Orientation Groundspeed Altitude Reporting Facility
EDT Latitude Longitude Course Direction KTS MPH feet Rate Location/Type
02:12PM 41.9481 -72.6717 62° Northeast 160 184 1,200  Level Boston Center
02:13PM 41.9772 -72.5964 62° Northeast 212 244 2,600 1,980 Climbing Boston Center
02:14PM 42.0669 -72.6164 351° North 250 288 7,000 2,520 Climbing Boston Center
02:15PM 42.1147 -72.6836 314° West 243 280 9,300 2,040 Climbing Boston Center
02:16PM 42.1583 -72.7481 312° West 260 299 11,100 1,320 Climbing Boston Center
02:17PM 42.2183 -72.8381 312° West 276 318 12,000 900 Climbing Boston Center
02:18PM 42.2744 -72.9228 312° West 319 367 12,900 1,140 Climbing Boston Center
02:19PM 42.3658 -72.9881 332° Northwest 332 382 14,300 1,380 Climbing Boston Center
02:20PM 42.4531 -73.0394 337° Northwest 332 382 15,700 1,260 Climbing Boston Center
02:21PM 42.5300 -73.0825 338° Northwest 343 395 16,900 1,140 Climbing Boston Center
02:22PM 42.6297 -73.1369 338° Northwest 343 395 18,000 1,200 Climbing Boston Center
02:23PM 42.7208 -73.1919 336° Northwest 348 400 19,300 1,260 Climbing Boston Center
02:24PM 42.8122 -73.2411 338° Northwest 354 407 20,600 1,320 Climbing Boston Center
02:25PM 42.9017 -73.2933 337° Northwest 354 407 22,000 1,320 Climbing Boston Center
02:26PM 42.9822 -73.3625 328° Northwest 347 399 23,300 1,320 Climbing Boston Center
02:27PM 43.0019 -73.4906 282° West 319 367 24,700 1,200 Climbing Boston Center
02:28PM 43.0133 -73.6072 278° West 330 380 25,800 1,200 Climbing Boston Center
02:29PM 43.0203 -73.7408 274° West 344 396 27,100 1,260 Climbing Boston Center
02:30PM 43.0292 -73.8686 275° West 356 410 28,400 1,260 Climbing Boston Center
02:31PM 43.0381 -73.9967 275° West 349 402 29,700 1,260 Climbing Boston Center
02:32PM 43.0467 -74.1219 275° West 349 402 31,000 900 Climbing Boston Center
02:33PM 43.0550 -74.2531 275° West 349 402 31,500 540 Climbing Boston Center
02:34PM 43.0631 -74.3925 275° West 354 407 32,100 600 Climbing Boston Center
02:35PM 43.0731 -74.5319 276° West 367 422 32,700 540 Climbing Boston Center
02:36PM 43.0808 -74.6803 274° West 379 436 33,200 540 Climbing Boston Center
02:37PM 43.0903 -74.8283 275° West 389 448 33,800 360 Climbing Boston Center
02:38PM 43.0975 -74.9764 274° West 389 448 34,000 60 Climbing Boston Center
02:39PM 43.1064 -75.1333 274° West 399 459 34,000  Level Boston Center
02:40PM 43.1150 -75.2903 274° West 410 472 34,000  Level Boston Center
02:41PM 43.1236 -75.4442 274° West 410 472 34,000  Level Boston Center
02:42PM 43.1319 -75.5956 274° West 410 472 34,000  Level Boston Center
02:43PM 43.1400 -75.7525 274° West 410 472 34,000  Level Boston Center
02:44PM 43.1481 -75.9094 274° West 410 472 34,000  Level Boston Center
02:46PM 43.1606 -76.2453 273° West 416 479 34,000  Level Cleveland Center
02:47PM 43.1619 -76.3989 271° West 411 473 34,000  Level Cleveland Center
02:48PM 43.1611 -76.5497 270° West 406 467 34,000  Level Cleveland Center
02:49PM 43.1617 -76.6864 270° West 406 467 34,000  Level Cleveland Center
02:50PM 43.1603 -76.8375 269° West 406 467 34,000  Level Cleveland Center
02:51PM 43.1589 -76.9856 269° West 406 467 34,000  Level Cleveland Center
02:52PM 43.1592 -77.1392 270° West 406 467 34,000  Level Cleveland Center
02:53PM 43.1572 -77.2875 269° West 406 467 34,000  Level Cleveland Center
02:54PM 43.1553 -77.4383 269° West 406 467 34,000  Level Cleveland Center
02:55PM 43.1531 -77.5894 269° West 406 467 34,000  Level Cleveland Center
02:56PM 43.1506 -77.7431 269° West 406 467 34,000  Level Cleveland Center
02:57PM 43.1481 -77.8969 269° West 406 467 34,000  Level Cleveland Center
02:58PM 43.1494 -78.0533 271° West 406 467 34,000  Level Cleveland Center
02:59PM 43.1464 -78.2072 268° West 406 467 34,000  Level Cleveland Center
03:00PM 43.1433 -78.3611 268° West 406 467 34,000  Level Cleveland Center
03:01PM 43.1400 -78.5147 268° West 406 467 34,000  Level Cleveland Center
03:02PM 43.1342 -78.6686 267° West 406 467 34,000  Level Cleveland Center
03:03PM 43.1306 -78.8253 268° West 406 467 34,000  Level Cleveland Center
03:04PM 43.1264 -78.9761 268° West 406 467 34,000  Level Cleveland Center
03:05PM 43.1283 -79.1325 271° West 406 467 34,000  Level Cleveland Center
03:07PM 43.1000 -79.3167 258° West 410 472 34,000  Level Toronto Center
03:08PM 43.1000 -79.4667 270° West 410 472 34,000  Level Toronto Center
03:09PM 43.1000 -79.6333 270° West 410 472 34,000  Level Toronto Center
03:10PM 43.0833 -79.7667 260° West 410 472 34,000  Level Toronto Center
03:11PM 43.0833 -79.9333 270° West 410 472 34,000  Level Toronto Center
03:12PM 43.0833 -80.0833 270° West 410 472 34,000  Level Toronto Center
03:13PM 43.0667 -80.2500 262° West 410 472 34,000  Level Toronto Center
03:14PM 43.0667 -80.4167 270° West 410 472 34,000  Level Toronto Center
03:15PM 43.0667 -80.5667 270° West 420 483 34,000  Level Toronto Center
03:16PM 43.0500 -80.7333 262° West 410 472 34,000  Level Toronto Center
03:17PM 43.0333 -80.8667 260° West 410 472 34,000  Level Toronto Center
03:18PM 43.0333 -81.0167 270° West 410 472 34,000  Level Toronto Center
03:19PM 43.0167 -81.1833 262° West 410 472 34,000  Level Toronto Center
03:20PM 43.0167 -81.3500 270° West 410 472 34,000  Level Toronto Center
03:21PM 43.0167 -81.5000 270° West 410 472 34,000  Level Toronto Center
03:22PM 43.0167 -81.6667 270° West 410 472 34,000  Level Toronto Center
03:23PM 43.0167 -81.8000 270° West 410 472 34,000  Level Toronto Center
03:24PM 43.0000 -81.9667 262° West 410 472 34,000  Level Toronto Center
03:25PM 43.0000 -82.1167 270° West 410 472 34,000  Level Toronto Center
03:26PM 43.0000 -82.2833 270° West 420 483 34,000 -120 Level Toronto Center
03:27PM 43.0000 -82.4333 270° West 420 483 33,800 -420 Descending Toronto Center
03:28PM 43.0000 -82.5667 270° West 410 472 33,200 -600 Descending Toronto Center
03:29PM 43.0008 -82.7322 270° West 415 478 32,700 -600 Descending Cleveland Center
03:30PM 42.9978 -82.8911 269° West 415 478 32,100 -360 Descending Cleveland Center
03:31PM 42.9922 -83.0497 267° West 420 483 32,000 -60 Descending Cleveland Center
03:32PM 42.9847 -83.2083 266° West 420 483 32,000  Level Cleveland Center
03:33PM 42.9811 -83.3644 268° West 420 483 32,000  Level Cleveland Center
03:34PM 42.9750 -83.5258 267° West 420 483 32,000  Level Cleveland Center
03:35PM 42.9686 -83.6844 267° West 420 483 32,000  Level Cleveland Center
03:36PM 42.9583 -83.8372 265° West 420 483 32,000  Level Cleveland Center
03:37PM 42.9411 -84.0008 262° West 427 491 32,000  Level Cleveland Center
03:38PM 42.9258 -84.1561 262° West 427 491 32,000  Level Cleveland Center
03:39PM 42.9103 -84.3167 263° West 427 491 32,000  Level Cleveland Center
03:40PM 42.8922 -84.4886 262° West 422 486 32,000  Level Cleveland Center
03:40PM 42.8917 -84.5128 268° West 426 490 32,000  Level Chicago Center
03:41PM 42.8750 -84.6714 262° West 425 489 32,000  Level Chicago Center
03:42PM 42.8589 -84.8308 262° West 426 490 32,000  Level Chicago Center
03:43PM 42.8383 -85.0222 262° West 425 489 32,000  Level Chicago Center
03:44PM 42.8217 -85.1817 262° West 425 489 32,000 -120 Level Chicago Center
03:45PM 42.8036 -85.3431 261° West 431 496 31,800 -840 Descending Chicago Center
03:46PM 42.7853 -85.5047 261° West 431 496 30,400 -1,560 Descending Chicago Center
03:47PM 42.7575 -85.6656 257° West 435 501 28,600 -2,100 Descending Chicago Center
03:48PM 42.7281 -85.8269 256° West 436 502 26,200 -2,400 Descending Chicago Center
03:49PM 42.6978 -85.9908 256° West 441 507 23,700 -2,460 Descending Chicago Center
03:50PM 42.6689 -86.1533 256° West 441 507 21,200 -1,800 Descending Chicago Center
03:51PM 42.6392 -86.3097 256° West 429 494 20,000 -1,620 Descending Chicago Center
03:52PM 42.6058 -86.4892 256° West 412 474 17,900 -2,100 Descending Chicago Center
03:53PM 42.5772 -86.6372 255° West 407 468 15,800 -2,280 Descending Chicago Center
03:54PM 42.5503 -86.7725 255° West 378 435 13,300 -2,520 Descending Chicago Center
03:55PM 42.5128 -86.9036 249° West 373 429 10,700 -1,620 Descending Chicago Center
03:56PM 42.4778 -87.0333 250° West 369 425 10,000 -540 Descending Chicago Center
03:57PM 42.4456 -87.1461 249° West 324 373 9,600 -540 Descending Chicago Center
03:58PM 42.4164 -87.2428 248° West 290 334 9,000 -660 Descending Chicago Center
03:59PM 42.3833 -87.3347 244° Southwest 279 321 8,300 -960 Descending Chicago Center
04:00PM 42.3550 -87.4497 252° West 272 313 7,100 -660 Descending Chicago Center
04:02PM 42.3217 -87.5278 240° Southwest 248 285 7,000 -60 Descending Chicago Center
04:03PM 42.2656 -87.5986 223° Southwest 268 308 7,000 -300 Level Chicago Center
04:04PM 42.2128 -87.6611 221° Southwest 257 296 6,400 -1,080 Descending Chicago Center
04:05PM 42.1586 -87.7183 218° Southwest 250 288 4,900 -1,560 Descending Chicago Center
04:06PM 42.0958 -87.7883 220° Southwest 246 283 3,200 -1,620 Descending Chicago Center
04:06PM 42.0833 -87.8000 215° Southwest 247 284 2,800 -1,200 Descending Chicago TRACON
04:07PM 42.0333 -87.8500 217° Southwest 186 214 1,700 -960 Descending Chicago TRACON
04:08PM 42.0000 -87.8833 217° Southwest 146 168 900 -840 Descending Chicago TRACON
04:10PM 41.9817 -87.9067 217° Southwest  Level Estimated